Time;durP1;ratioP1;P1;durP2;ratioP2;P2;SDS_P1;SDS_P2;PMS_P1;PMS_P2;Temp;Humidity;BMP_temperature;BMP_pressure;BME280_temperature;BME280_humidity;BME280_pressure;Samples;Min_cycle;Max_cycle;Signal;HPM_P1;HPM_P2
2024/03/15 00:00:28;;;;;;;15.60;9.03;;;11.10;99.90;;;;;;6076897;23;20409;-60
2024/03/15 00:02:55;;;;;;;19.03;11.00;;;11.10;99.90;;;;;;6075435;23;20462;-62
2024/03/15 00:05:24;;;;;;;17.60;11.13;;;11.10;99.90;;;;;;6099345;23;20414;-61
2024/03/15 00:07:50;;;;;;;15.07;8.30;;;11.10;99.90;;;;;;6099003;23;20410;-62
2024/03/15 00:10:18;;;;;;;16.57;9.50;;;11.10;99.90;;;;;;6075207;23;20476;-62
2024/03/15 00:12:45;;;;;;;15.07;9.97;;;11.00;99.90;;;;;;6074661;23;20434;-63
2024/03/15 00:15:13;;;;;;;13.60;9.63;;;11.00;99.90;;;;;;6075574;23;20733;-61
2024/03/15 00:17:40;;;;;;;15.93;9.53;;;11.00;99.90;;;;;;6075605;23;20407;-60
2024/03/15 00:20:07;;;;;;;16.20;9.80;;;11.00;99.90;;;;;;6075161;23;20482;-59
2024/03/15 00:22:36;;;;;;;14.67;10.07;;;11.00;99.90;;;;;;6075395;23;20486;-62
2024/03/15 00:25:03;;;;;;;14.30;8.90;;;11.00;99.90;;;;;;6099719;23;20408;-62
2024/03/15 00:27:30;;;;;;;15.47;8.77;;;11.00;99.90;;;;;;6077472;23;20439;-62
2024/03/15 00:29:57;;;;;;;13.10;8.67;;;11.00;99.90;;;;;;6078289;23;20403;-62
2024/03/15 00:32:25;;;;;;;15.33;10.30;;;11.00;99.90;;;;;;6077122;23;20993;-63
2024/03/15 00:34:52;;;;;;;12.30;7.93;;;10.90;99.90;;;;;;6102331;23;20407;-61
2024/03/15 00:37:19;;;;;;;14.77;9.50;;;10.90;99.90;;;;;;6077318;23;20437;-63
2024/03/15 00:39:46;;;;;;;13.50;8.00;;;10.90;99.90;;;;;;6076367;23;20974;-60
2024/03/15 00:42:14;;;;;;;16.00;9.00;;;10.90;99.90;;;;;;6074520;23;20502;-61
2024/03/15 00:44:41;;;;;;;17.10;10.10;;;10.90;99.90;;;;;;6075264;23;20411;-64
2024/03/15 00:47:08;;;;;;;14.67;9.00;;;10.90;99.90;;;;;;6099024;23;20405;-62
2024/03/15 00:49:35;;;;;;;17.53;8.90;;;10.90;99.90;;;;;;6075318;23;20486;-62
2024/03/15 00:52:03;;;;;;;21.70;10.13;;;10.90;99.90;;;;;;6074926;23;20843;-62
2024/03/15 00:54:30;;;;;;;17.63;9.10;;;10.90;99.90;;;;;;6099055;23;20897;-61
2024/03/15 00:56:57;;;;;;;18.03;10.50;;;10.90;99.90;;;;;;6075421;23;20744;-63
2024/03/15 00:59:24;;;;;;;14.13;9.27;;;10.80;99.90;;;;;;6099052;23;20482;-62
2024/03/15 01:01:51;;;;;;;18.40;9.67;;;10.80;99.90;;;;;;6075089;23;20910;-61
2024/03/15 01:04:17;;;;;;;16.57;9.83;;;10.70;99.90;;;;;;6074990;23;20427;-63
2024/03/15 01:06:44;;;;;;;24.77;12.87;;;10.70;99.90;;;;;;6074969;23;20468;-62
2024/03/15 01:09:13;;;;;;;14.23;9.63;;;10.70;99.90;;;;;;6099142;23;20444;-59
2024/03/15 01:11:40;;;;;;;14.87;9.57;;;10.60;99.90;;;;;;6075917;23;20457;-62
2024/03/15 01:14:07;;;;;;;14.90;9.60;;;10.60;99.90;;;;;;6075447;23;20403;-61
2024/03/15 01:16:34;;;;;;;14.70;9.20;;;10.60;99.90;;;;;;6074901;23;20411;-60
2024/03/15 01:19:01;;;;;;;16.23;9.80;;;10.60;99.90;;;;;;6074780;23;20434;-61
2024/03/15 01:21:28;;;;;;;20.53;11.27;;;10.60;99.90;;;;;;6074684;23;20494;-60
2024/03/15 01:23:55;;;;;;;22.50;10.10;;;10.60;99.90;;;;;;6098621;23;20921;-62
2024/03/15 01:26:23;;;;;;;16.60;10.70;;;10.60;99.90;;;;;;6099759;23;20410;-63
2024/03/15 01:28:50;;;;;;;19.40;10.30;;;10.50;99.90;;;;;;6101046;23;20486;-62
2024/03/15 01:31:17;;;;;;;15.60;9.37;;;10.40;99.90;;;;;;6099692;23;20477;-62
2024/03/15 01:33:44;;;;;;;18.83;10.50;;;10.40;99.90;;;;;;6074460;23;20801;-61
2024/03/15 01:36:11;;;;;;;17.83;12.00;;;10.30;99.90;;;;;;6098834;23;20438;-59
2024/03/15 01:38:38;;;;;;;14.13;10.40;;;10.30;99.90;;;;;;6099431;23;20435;-62
2024/03/15 01:41:05;;;;;;;16.77;10.50;;;10.40;99.90;;;;;;6100606;23;20741;-61
2024/03/15 01:43:32;;;;;;;18.53;12.10;;;10.30;99.90;;;;;;6100435;23;20433;-63
2024/03/15 01:45:59;;;;;;;21.87;12.43;;;10.30;99.90;;;;;;6100498;23;20414;-60
2024/03/15 01:48:26;;;;;;;16.60;10.60;;;10.30;99.90;;;;;;6101345;23;20438;-61
2024/03/15 01:50:53;;;;;;;17.47;11.33;;;10.30;99.90;;;;;;6101403;23;20466;-62
2024/03/15 01:53:20;;;;;;;15.07;10.60;;;10.30;99.90;;;;;;6099793;23;20447;-61
2024/03/15 01:55:47;;;;;;;16.03;10.83;;;10.30;99.90;;;;;;6100568;23;20430;-62
2024/03/15 01:58:15;;;;;;;19.03;11.43;;;10.30;99.90;;;;;;6100612;23;20406;-61
2024/03/15 02:00:42;;;;;;;19.77;12.50;;;10.30;99.90;;;;;;6100086;23;20410;-62
2024/03/15 02:03:09;;;;;;;20.60;11.63;;;10.30;99.90;;;;;;6100584;23;20502;-62
2024/03/15 02:05:39;;;;;;;19.50;11.80;;;10.30;99.90;;;;;;6100201;23;20410;-64
2024/03/15 02:08:08;;;;;;;23.03;11.73;;;10.40;99.90;;;;;;6100478;23;20411;-62
2024/03/15 02:10:34;;;;;;;17.80;10.57;;;10.30;99.90;;;;;;6100242;23;20422;-62
2024/03/15 02:13:02;;;;;;;19.93;11.23;;;10.40;99.90;;;;;;6099274;23;20465;-62
2024/03/15 02:15:29;;;;;;;20.47;11.90;;;10.30;99.90;;;;;;6100483;23;20403;-60
2024/03/15 02:17:56;;;;;;;16.93;9.03;;;10.20;99.90;;;;;;6100176;23;20482;-60
2024/03/15 02:20:22;;;;;;;20.10;12.43;;;10.20;99.90;;;;;;6076180;23;20431;-58
2024/03/15 02:22:49;;;;;;;19.47;10.23;;;10.20;99.90;;;;;;6100329;23;20498;-62
2024/03/15 02:25:18;;;;;;;19.07;11.53;;;10.10;99.90;;;;;;6100124;23;20404;-63
2024/03/15 02:27:45;;;;;;;23.80;13.00;;;10.20;99.90;;;;;;6100496;23;20407;-59
2024/03/15 02:30:12;;;;;;;17.30;12.27;;;10.20;99.90;;;;;;6100273;23;20865;-61
2024/03/15 02:32:39;;;;;;;21.60;13.53;;;10.10;99.90;;;;;;6099519;23;20447;-61
2024/03/15 02:35:08;;;;;;;19.17;12.10;;;10.10;99.90;;;;;;6100078;23;20427;-61
2024/03/15 02:37:37;;;;;;;23.73;12.87;;;10.10;99.90;;;;;;6100860;23;20486;-61
2024/03/15 02:40:06;;;;;;;27.00;13.77;;;10.10;99.90;;;;;;6099870;23;20900;-63
2024/03/15 02:42:33;;;;;;;18.43;12.77;;;10.10;99.90;;;;;;6099734;23;20989;-62
2024/03/15 02:45:00;;;;;;;22.83;12.43;;;10.10;99.90;;;;;;6099892;23;20772;-62
2024/03/15 02:47:27;;;;;;;25.57;13.60;;;10.10;99.90;;;;;;6100225;23;20946;-61
2024/03/15 02:49:55;;;;;;;19.20;12.77;;;10.10;99.90;;;;;;6099484;23;20486;-62
2024/03/15 02:52:22;;;;;;;24.50;15.23;;;10.10;99.90;;;;;;6099558;23;20447;-60
2024/03/15 02:54:49;;;;;;;27.70;14.07;;;10.10;99.90;;;;;;6099712;23;20396;-61
2024/03/15 02:57:16;;;;;;;24.70;13.40;;;10.10;99.90;;;;;;6102230;23;20399;-60
2024/03/15 02:59:44;;;;;;;22.07;13.30;;;10.10;99.90;;;;;;6102804;23;20419;-62
2024/03/15 03:02:11;;;;;;;19.93;12.73;;;10.00;99.90;;;;;;6100424;23;20423;-61
2024/03/15 03:04:38;;;;;;;25.20;14.13;;;10.00;99.90;;;;;;6100019;23;20400;-62
2024/03/15 03:07:05;;;;;;;21.20;12.43;;;10.00;99.90;;;;;;6100469;23;20430;-61
2024/03/15 03:09:32;;;;;;;23.40;13.70;;;10.00;99.90;;;;;;6100227;23;20450;-62
2024/03/15 03:11:59;;;;;;;23.67;14.10;;;10.00;99.90;;;;;;6099617;23;20453;-63
2024/03/15 03:14:26;;;;;;;18.93;13.37;;;9.90;99.90;;;;;;6100286;23;20446;-61
2024/03/15 03:16:54;;;;;;;21.13;15.07;;;9.90;99.90;;;;;;6100069;23;20450;-63
2024/03/15 03:19:23;;;;;;;24.00;13.00;;;9.90;99.90;;;;;;6099083;23;20416;-62
2024/03/15 03:21:51;;;;;;;21.40;13.60;;;9.90;99.90;;;;;;6100091;23;20427;-61
2024/03/15 03:24:18;;;;;;;27.30;16.30;;;9.90;99.90;;;;;;6099587;23;20403;-62
2024/03/15 03:26:45;;;;;;;28.70;13.30;;;9.90;99.90;;;;;;6099911;23;20407;-62
2024/03/15 03:29:12;;;;;;;21.97;12.87;;;9.90;99.90;;;;;;6099585;23;20748;-62
2024/03/15 03:31:39;;;;;;;23.33;13.70;;;9.90;99.90;;;;;;6098801;23;20983;-60
2024/03/15 03:34:06;;;;;;;22.50;13.90;;;9.90;99.90;;;;;;6099409;23;20410;-62
2024/03/15 03:36:36;;;;;;;20.40;13.13;;;9.90;99.90;;;;;;6099890;23;20438;-62
2024/03/15 03:39:04;;;;;;;20.50;14.00;;;10.00;99.90;;;;;;6100110;23;20790;-63
2024/03/15 03:41:31;;;;;;;24.33;15.03;;;10.00;99.90;;;;;;6099359;23;20902;-61
2024/03/15 03:43:58;;;;;;;22.63;14.20;;;10.10;99.90;;;;;;6099262;23;20730;-63
2024/03/15 03:46:25;;;;;;;22.90;12.90;;;10.10;99.90;;;;;;6099145;23;20407;-62
2024/03/15 03:48:52;;;;;;;21.87;12.83;;;10.10;99.90;;;;;;6099109;23;20458;-59
2024/03/15 03:51:19;;;;;;;26.70;15.47;;;10.00;99.90;;;;;;6098798;23;20466;-61
2024/03/15 03:53:47;;;;;;;24.37;14.77;;;10.10;99.90;;;;;;6099289;23;20800;-62
2024/03/15 03:56:15;;;;;;;21.13;13.53;;;10.10;99.90;;;;;;6099220;23;20414;-61
2024/03/15 03:58:44;;;;;;;23.33;13.30;;;10.20;99.90;;;;;;6099546;23;20775;-62
2024/03/15 04:01:11;;;;;;;23.90;13.63;;;10.20;99.90;;;;;;6099687;23;20717;-61
2024/03/15 04:03:38;;;;;;;27.07;13.20;;;10.20;99.90;;;;;;6098510;23;20426;-62
2024/03/15 04:06:05;;;;;;;27.63;16.00;;;10.10;99.90;;;;;;6099161;23;20435;-60
2024/03/15 04:08:33;;;;;;;23.33;13.37;;;10.10;99.90;;;;;;6099582;23;20409;-61
2024/03/15 04:11:01;;;;;;;22.00;13.20;;;10.10;99.90;;;;;;6098952;23;20407;-62
2024/03/15 04:13:28;;;;;;;27.13;14.60;;;10.10;99.90;;;;;;6099188;23;20918;-61
2024/03/15 04:15:54;;;;;;;22.30;12.77;;;10.10;99.90;;;;;;6099038;23;20481;-61
2024/03/15 04:18:22;;;;;;;23.53;14.87;;;10.10;99.90;;;;;;6098366;23;20406;-62
2024/03/15 04:20:48;;;;;;;24.83;15.77;;;10.10;99.90;;;;;;6098968;23;20399;-62
2024/03/15 04:23:20;;;;;;;25.90;16.00;;;10.10;99.90;;;;;;6098942;23;20429;-62
2024/03/15 04:25:48;;;;;;;21.50;13.50;;;10.10;99.90;;;;;;6099930;23;20868;-63
2024/03/15 04:28:18;;;;;;;23.23;14.17;;;10.10;99.90;;;;;;6075908;23;20897;-63
2024/03/15 04:30:46;;;;;;;29.93;16.00;;;10.10;99.90;;;;;;6099537;23;20407;-59
2024/03/15 04:33:13;;;;;;;23.20;13.97;;;10.00;99.90;;;;;;6098738;23;20447;-62
2024/03/15 04:35:40;;;;;;;24.67;13.77;;;10.00;99.90;;;;;;6100244;23;20430;-62
2024/03/15 04:38:08;;;;;;;24.33;14.33;;;10.00;99.90;;;;;;6102163;23;20411;-62
2024/03/15 04:40:35;;;;;;;28.40;16.50;;;10.00;99.90;;;;;;6099677;23;20919;-62
2024/03/15 04:43:02;;;;;;;25.30;15.33;;;10.00;99.90;;;;;;6098796;23;20457;-62
2024/03/15 04:45:29;;;;;;;28.47;16.07;;;9.90;99.90;;;;;;6099825;23;20410;-61
2024/03/15 04:47:57;;;;;;;26.87;14.10;;;9.90;99.90;;;;;;6099317;23;20586;-58
2024/03/15 04:50:24;;;;;;;21.37;13.00;;;9.90;99.90;;;;;;6099196;23;20407;-62
2024/03/15 04:52:52;;;;;;;25.37;14.10;;;9.90;99.90;;;;;;6098883;23;20818;-59
2024/03/15 04:55:19;;;;;;;23.37;13.60;;;9.90;99.90;;;;;;6099807;23;20403;-62
2024/03/15 04:57:47;;;;;;;25.43;14.77;;;9.90;99.90;;;;;;6099380;23;20411;-61
2024/03/15 05:00:18;;;;;;;24.20;13.27;;;9.90;99.90;;;;;;6098955;23;20403;-62
2024/03/15 05:02:46;;;;;;;31.83;16.37;;;9.90;99.90;;;;;;6099603;23;20431;-62
2024/03/15 05:05:15;;;;;;;28.20;15.73;;;9.90;99.90;;;;;;6099042;23;20916;-60
2024/03/15 05:07:42;;;;;;;27.60;16.20;;;9.90;99.90;;;;;;6099461;23;20707;-61
2024/03/15 05:10:11;;;;;;;25.97;14.40;;;9.90;99.90;;;;;;6098973;23;20434;-62
2024/03/15 05:12:38;;;;;;;27.13;13.97;;;9.90;99.90;;;;;;6099028;23;20822;-60
2024/03/15 05:15:06;;;;;;;25.27;15.33;;;9.90;99.90;;;;;;6100581;23;20414;-61
2024/03/15 05:17:33;;;;;;;24.77;14.40;;;9.80;99.90;;;;;;6100878;23;20482;-61
2024/03/15 05:20:00;;;;;;;28.67;16.27;;;9.80;99.90;;;;;;6101154;23;20410;-60
2024/03/15 05:22:27;;;;;;;28.40;16.63;;;9.70;99.90;;;;;;6100281;23;20985;-61
2024/03/15 05:24:55;;;;;;;28.60;15.90;;;9.70;99.90;;;;;;6101091;23;20769;-62
2024/03/15 05:27:22;;;;;;;28.10;15.70;;;9.70;99.90;;;;;;6101194;23;20501;-62
2024/03/15 05:29:49;;;;;;;25.50;15.43;;;9.70;99.90;;;;;;6100321;23;20494;-61
2024/03/15 05:32:16;;;;;;;23.30;14.17;;;9.70;99.90;;;;;;6099954;23;20530;-61
2024/03/15 05:34:43;;;;;;;35.03;17.90;;;9.80;99.90;;;;;;6100870;23;20399;-59
2024/03/15 05:37:10;;;;;;;29.67;17.00;;;9.70;99.90;;;;;;6101124;23;20730;-60
2024/03/15 05:39:37;;;;;;;27.70;16.63;;;9.70;99.90;;;;;;6101734;23;20466;-60
2024/03/15 05:42:04;;;;;;;25.20;15.70;;;9.70;99.90;;;;;;6101340;23;20754;-61
2024/03/15 05:44:31;;;;;;;28.40;17.00;;;9.70;99.90;;;;;;6101749;23;20454;-61
2024/03/15 05:46:58;;;;;;;46.30;17.13;;;9.70;99.90;;;;;;6101656;23;20894;-60
2024/03/15 05:49:25;;;;;;;35.00;18.13;;;9.70;99.90;;;;;;6101156;23;20478;-61
2024/03/15 05:51:52;;;;;;;30.27;16.83;;;9.70;99.90;;;;;;6100036;23;20858;-62
2024/03/15 05:54:19;;;;;;;29.90;16.80;;;9.70;99.90;;;;;;6100180;23;20478;-61
2024/03/15 05:56:46;;;;;;;27.43;16.20;;;9.70;99.90;;;;;;6100372;23;20407;-56
2024/03/15 05:59:13;;;;;;;27.70;17.00;;;9.70;99.90;;;;;;6100589;23;20407;-62
2024/03/15 06:01:40;;;;;;;26.90;15.13;;;9.80;99.90;;;;;;6100234;23;20485;-61
2024/03/15 06:04:10;;;;;;;30.70;16.37;;;9.90;99.90;;;;;;6100041;23;20409;-62
2024/03/15 06:06:40;;;;;;;26.67;14.83;;;9.90;99.90;;;;;;6101322;23;20495;-63
2024/03/15 06:09:09;;;;;;;30.80;15.67;;;9.90;99.90;;;;;;6100404;23;20487;-62
2024/03/15 06:11:36;;;;;;;26.40;15.87;;;10.00;99.90;;;;;;6100289;23;20415;-62
2024/03/15 06:14:04;;;;;;;25.17;14.97;;;10.00;99.90;;;;;;6099713;23;20914;-62
2024/03/15 06:16:31;;;;;;;28.37;16.80;;;10.00;99.90;;;;;;6101017;23;20407;-61
2024/03/15 06:18:58;;;;;;;24.33;14.37;;;10.00;99.90;;;;;;6100431;23;20399;-62
2024/03/15 06:21:26;;;;;;;24.07;14.60;;;10.00;99.90;;;;;;6099997;23;20410;-62
2024/03/15 06:23:54;;;;;;;19.80;12.80;;;10.10;99.90;;;;;;6100260;23;20406;-61
2024/03/15 06:26:22;;;;;;;24.03;14.60;;;10.10;99.90;;;;;;6100625;23;20410;-61
2024/03/15 06:28:50;;;;;;;28.20;14.73;;;10.10;99.90;;;;;;6100620;23;20403;-61
2024/03/15 06:31:17;;;;;;;26.10;15.20;;;10.20;99.90;;;;;;6099811;23;20438;-62
2024/03/15 06:33:44;;;;;;;21.87;14.73;;;10.20;99.90;;;;;;6099631;23;20454;-62
2024/03/15 06:36:16;;;;;;;26.80;14.93;;;10.20;99.90;;;;;;6100038;23;20409;-62
2024/03/15 06:38:53;;;;;;;23.47;13.10;;;10.30;99.90;;;;;;6101611;23;20710;-61
2024/03/15 06:41:37;;;;;;;20.00;12.17;;;10.40;99.90;;;;;;6102473;23;20458;-61
2024/03/15 06:44:19;;;;;;;23.47;13.50;;;10.50;99.90;;;;;;6103218;23;20419;-61
2024/03/15 06:47:04;;;;;;;19.33;12.40;;;10.70;99.90;;;;;;6103054;23;20442;-62
2024/03/15 06:49:43;;;;;;;26.57;15.13;;;10.70;99.90;;;;;;6103377;23;20396;-61
2024/03/15 06:54:56;;;;;;;21.47;13.33;;;10.70;99.90;;;;;;6082932;23;20877;-63
2024/03/15 06:57:23;;;;;;;26.77;14.13;;;10.80;99.90;;;;;;6099767;23;20403;-63
2024/03/15 06:59:50;;;;;;;22.03;12.67;;;10.80;99.90;;;;;;6099373;23;20826;-62
2024/03/15 07:02:17;;;;;;;21.47;12.20;;;10.90;99.90;;;;;;6098981;23;20458;-52
2024/03/15 07:04:44;;;;;;;24.90;11.97;;;11.00;99.90;;;;;;6099548;23;20478;-55
2024/03/15 07:07:13;;;;;;;33.73;13.30;;;11.10;99.90;;;;;;6099734;23;20981;-53
2024/03/15 07:09:41;;;;;;;19.33;11.70;;;11.30;99.90;;;;;;6100434;23;20787;-53
2024/03/15 07:12:08;;;;;;;21.30;12.80;;;11.40;99.90;;;;;;6098506;23;20427;-57
2024/03/15 07:14:36;;;;;;;17.60;11.20;;;11.50;99.90;;;;;;6075825;23;20410;-56
2024/03/15 07:17:04;;;;;;;21.63;11.73;;;11.60;99.90;;;;;;6100207;23;20407;-56
2024/03/15 07:19:33;;;;;;;19.70;11.90;;;11.70;99.90;;;;;;6099664;23;20498;-56
2024/03/15 07:22:00;;;;;;;15.53;10.50;;;11.80;99.90;;;;;;6099716;23;20427;-56
2024/03/15 07:24:26;;;;;;;17.60;10.60;;;11.90;99.90;;;;;;6099398;23;20764;-57
2024/03/15 07:26:54;;;;;;;18.60;11.00;;;12.00;99.90;;;;;;6098809;23;21049;-55
2024/03/15 07:29:21;;;;;;;18.90;11.10;;;12.00;99.90;;;;;;6099223;23;20486;-57
2024/03/15 07:31:48;;;;;;;19.33;11.47;;;12.10;99.90;;;;;;6095969;23;20434;-54
2024/03/15 07:34:16;;;;;;;17.73;11.00;;;12.10;99.90;;;;;;6099081;23;20454;-56
2024/03/15 07:36:44;;;;;;;18.77;11.20;;;12.10;99.90;;;;;;6098458;23;20407;-55
2024/03/15 07:39:11;;;;;;;16.33;9.67;;;12.10;99.90;;;;;;6099627;23;20490;-55
2024/03/15 07:41:38;;;;;;;19.23;11.30;;;12.10;99.90;;;;;;6075284;23;20438;-54
2024/03/15 07:44:05;;;;;;;17.43;9.57;;;12.10;99.90;;;;;;6099210;23;20463;-59
2024/03/15 07:46:34;;;;;;;16.33;10.60;;;12.20;99.90;;;;;;6075037;23;20906;-63
2024/03/15 07:49:01;;;;;;;18.60;10.20;;;12.30;99.90;;;;;;6099696;23;20921;-63
2024/03/15 07:51:28;;;;;;;13.07;10.00;;;12.30;99.90;;;;;;6099313;23;20482;-61
2024/03/15 07:53:55;;;;;;;18.60;11.03;;;12.40;99.90;;;;;;6099132;23;20520;-62
2024/03/15 07:56:23;;;;;;;18.27;12.30;;;12.50;99.90;;;;;;6099508;23;20403;-62
2024/03/15 07:58:52;;;;;;;17.80;10.37;;;12.70;99.90;;;;;;6099278;23;20490;-61
2024/03/15 08:01:19;;;;;;;17.70;10.70;;;12.70;99.90;;;;;;6099743;23;20403;-62
2024/03/15 08:03:46;;;;;;;15.23;10.80;;;12.90;99.90;;;;;;6099191;23;20483;-63
2024/03/15 08:06:15;;;;;;;19.50;9.43;;;12.90;99.90;;;;;;6099822;23;20434;-63
2024/03/15 08:08:42;;;;;;;15.23;9.83;;;13.00;99.90;;;;;;6076417;23;20407;-62
2024/03/15 08:11:11;;;;;;;19.17;10.67;;;13.20;99.90;;;;;;6075734;23;20697;-62
2024/03/15 08:13:38;;;;;;;15.47;10.60;;;13.20;99.90;;;;;;6077689;23;20543;-63
2024/03/15 08:16:18;;;;;;;18.37;11.17;;;13.20;99.90;;;;;;6100943;23;20473;-62
2024/03/15 08:18:47;;;;;;;13.73;9.50;;;13.30;99.90;;;;;;6103874;23;20403;-63
2024/03/15 08:21:14;;;;;;;15.00;9.13;;;13.40;99.90;;;;;;6077784;23;20410;-63
2024/03/15 08:23:42;;;;;;;14.43;9.63;;;13.40;99.90;;;;;;6076332;23;20442;-63
2024/03/15 08:26:09;;;;;;;16.57;9.23;;;13.40;99.90;;;;;;6077105;23;20407;-63
2024/03/15 08:28:36;;;;;;;13.60;8.47;;;13.40;99.90;;;;;;6076291;23;20438;-62
2024/03/15 08:31:04;;;;;;;13.20;9.53;;;13.40;99.90;;;;;;6075350;23;20785;-63
2024/03/15 08:33:31;;;;;;;15.33;10.37;;;13.50;99.90;;;;;;6075100;23;20513;-61
2024/03/15 08:36:00;;;;;;;22.43;11.23;;;13.60;99.90;;;;;;6098683;23;20392;-61
2024/03/15 08:38:27;;;;;;;19.47;9.67;;;13.70;99.90;;;;;;6099678;23;20485;-63
2024/03/15 08:40:54;;;;;;;15.60;8.83;;;14.00;99.90;;;;;;6075592;23;20433;-61
2024/03/15 08:43:21;;;;;;;9.93;7.17;;;14.60;99.90;;;;;;6074891;23;20427;-61
2024/03/15 08:45:49;;;;;;;14.40;9.10;;;15.50;99.90;;;;;;6075571;23;20422;-63
2024/03/15 08:48:17;;;;;;;17.53;10.10;;;16.20;99.90;;;;;;6076785;23;20744;-63
2024/03/15 08:50:46;;;;;;;13.83;9.33;;;16.40;99.90;;;;;;6101285;23;20531;-63
2024/03/15 08:53:13;;;;;;;10.90;8.43;;;16.40;99.90;;;;;;6077133;23;20778;-61
2024/03/15 08:55:42;;;;;;;12.67;8.83;;;16.60;99.90;;;;;;6076777;23;20485;-62
2024/03/15 08:58:10;;;;;;;14.37;9.10;;;16.60;99.90;;;;;;6077692;23;20494;-61
2024/03/15 09:00:38;;;;;;;15.20;9.87;;;16.40;99.90;;;;;;6077275;23;20399;-63
2024/03/15 09:03:06;;;;;;;14.83;9.07;;;16.20;99.90;;;;;;6078071;23;20461;-63
2024/03/15 09:05:35;;;;;;;10.73;7.73;;;16.10;99.90;;;;;;6079523;23;20399;-63
2024/03/15 09:08:02;;;;;;;14.30;9.33;;;15.90;99.90;;;;;;6076847;23;20439;-63
2024/03/15 09:13:10;;;;;;;21.13;9.97;;;16.00;99.90;;;;;;6169259;23;20464;-58
2024/03/15 09:15:38;;;;;;;17.20;9.60;;;16.10;99.90;;;;;;6112922;23;20500;-58
2024/03/15 09:18:06;;;;;;;13.20;8.90;;;16.20;99.90;;;;;;6114312;23;20411;-58
2024/03/15 09:20:35;;;;;;;13.10;8.40;;;16.50;99.90;;;;;;6114982;23;20489;-58
2024/03/15 09:23:03;;;;;;;12.27;7.73;;;17.40;99.90;;;;;;6113200;23;20457;-57
2024/03/15 09:25:30;;;;;;;14.67;8.70;;;18.40;99.90;;;;;;6112304;23;20441;-58
2024/03/15 09:28:00;;;;;;;11.83;8.13;;;19.00;99.90;;;;;;6111348;23;20521;-59
2024/03/15 09:30:29;;;;;;;11.47;7.77;;;19.40;99.90;;;;;;6111254;23;20421;-58
2024/03/15 09:32:56;;;;;;;13.33;8.70;;;19.90;99.90;;;;;;6111953;23;20442;-59
2024/03/15 09:35:25;;;;;;;14.23;8.80;;;20.00;99.90;;;;;;6111215;23;20426;-59
2024/03/15 09:37:53;;;;;;;9.40;7.40;;;19.60;99.90;;;;;;6112545;23;20905;-59
2024/03/15 09:40:20;;;;;;;17.07;9.07;;;19.30;99.90;;;;;;6112987;23;20740;-59
2024/03/15 09:42:48;;;;;;;11.10;7.43;;;18.90;99.90;;;;;;6111980;23;20433;-59
2024/03/15 09:45:17;;;;;;;13.70;8.67;;;18.60;99.90;;;;;;6112081;23;20452;-58
2024/03/15 09:47:45;;;;;;;13.33;8.37;;;18.30;99.90;;;;;;6110103;23;20414;-58
2024/03/15 09:50:12;;;;;;;11.90;7.97;;;18.20;99.90;;;;;;6109760;23;20412;-61
2024/03/15 09:52:40;;;;;;;8.00;6.60;;;18.30;99.90;;;;;;6109739;23;20460;-59
2024/03/15 09:55:13;;;;;;;11.17;8.00;;;18.20;99.90;;;;;;6109620;23;20465;-59
2024/03/15 09:57:42;;;;;;;8.00;6.93;;;18.00;99.90;;;;;;6112194;23;20406;-60
2024/03/15 10:00:11;;;;;;;13.30;7.70;;;18.00;99.90;;;;;;6109986;23;20489;-58
2024/03/15 10:02:38;;;;;;;11.30;7.80;;;18.10;99.90;;;;;;6109622;23;20908;-57
2024/03/15 10:05:07;;;;;;;10.43;7.97;;;18.40;99.90;;;;;;6109998;23;20433;-58
2024/03/15 10:07:35;;;;;;;11.33;8.10;;;18.70;99.90;;;;;;6110798;23;20411;-56
2024/03/15 10:10:05;;;;;;;9.20;6.30;;;19.10;99.90;;;;;;6110412;23;20414;-58
2024/03/15 10:12:34;;;;;;;15.30;7.30;;;19.80;99.90;;;;;;6104613;23;20776;-55
2024/03/15 10:15:05;;;;;;;14.27;8.43;;;20.60;99.90;;;;;;6105183;23;20467;-58
2024/03/15 10:17:37;;;;;;;8.67;6.50;;;21.20;99.90;;;;;;6106081;23;20388;-60
2024/03/15 10:20:10;;;;;;;11.43;8.43;;;22.10;99.90;;;;;;6105302;23;20478;-58
2024/03/15 10:22:37;;;;;;;10.10;6.97;;;22.60;99.90;;;;;;6106094;23;20426;-60
2024/03/15 10:25:05;;;;;;;11.80;7.17;;;22.80;99.90;;;;;;6105328;23;20682;-59
2024/03/15 10:27:34;;;;;;;13.33;7.13;;;23.00;99.90;;;;;;6106688;23;20408;-59
2024/03/15 10:30:01;;;;;;;12.43;7.23;;;23.10;99.90;;;;;;6105158;23;20411;-58
2024/03/15 10:32:28;;;;;;;9.13;7.23;;;23.30;99.70;;;;;;6105772;23;20428;-59
2024/03/15 10:34:55;;;;;;;10.43;7.60;;;23.50;98.40;;;;;;6107010;23;20447;-60
2024/03/15 10:37:23;;;;;;;9.47;6.90;;;22.90;98.80;;;;;;6106517;23;20403;-60
2024/03/15 10:39:50;;;;;;;9.20;6.90;;;22.90;98.70;;;;;;6106737;23;20430;-55
2024/03/15 10:42:18;;;;;;;13.60;6.80;;;22.90;98.20;;;;;;6106354;23;20763;-58
2024/03/15 10:44:46;;;;;;;8.63;7.20;;;22.90;98.10;;;;;;6107229;23;20404;-57
2024/03/15 10:47:18;;;;;;;12.50;6.83;;;22.70;98.40;;;;;;6106542;23;20791;-59
2024/03/15 10:49:47;;;;;;;7.33;6.53;;;22.60;98.70;;;;;;6107141;23;20414;-60
2024/03/15 10:52:14;;;;;;;9.40;6.87;;;22.30;99.10;;;;;;6107377;23;20410;-60
2024/03/15 10:54:41;;;;;;;9.67;6.60;;;22.30;99.20;;;;;;6106951;23;20438;-57
2024/03/15 10:57:09;;;;;;;8.90;6.67;;;21.90;99.90;;;;;;6108061;23;20470;-58
2024/03/15 10:59:36;;;;;;;8.93;7.00;;;21.70;99.90;;;;;;6107127;23;20897;-59
2024/03/15 11:02:06;;;;;;;7.53;6.50;;;21.30;99.90;;;;;;6105312;23;20438;-58
2024/03/15 11:04:33;;;;;;;9.07;6.47;;;20.90;99.90;;;;;;6105542;23;20403;-57
2024/03/15 11:07:02;;;;;;;8.13;6.43;;;20.70;99.90;;;;;;6104181;23;20399;-58
2024/03/15 11:09:35;;;;;;;10.47;7.10;;;20.60;99.90;;;;;;6082404;23;20415;-60
2024/03/15 11:12:03;;;;;;;9.13;6.70;;;20.50;99.90;;;;;;6106834;23;20427;-57
2024/03/15 11:14:35;;;;;;;8.97;6.33;;;20.40;99.90;;;;;;6107135;23;20446;-58
2024/03/15 11:17:06;;;;;;;16.10;6.37;;;20.50;99.90;;;;;;6106973;23;20463;-60
2024/03/15 11:19:55;;;;;;;7.70;5.97;;;20.50;99.90;;;;;;6106196;23;20411;-57
2024/03/15 11:22:22;;;;;;;9.90;6.13;;;20.70;99.90;;;;;;6109545;23;20450;-58
2024/03/15 11:24:50;;;;;;;9.87;6.50;;;20.90;99.90;;;;;;6107217;23;20399;-57
2024/03/15 11:27:17;;;;;;;10.90;7.60;;;20.80;99.90;;;;;;6107322;23;20399;-59
2024/03/15 11:29:45;;;;;;;10.13;7.27;;;20.70;99.90;;;;;;6106365;23;20395;-59
2024/03/15 11:32:14;;;;;;;8.10;6.50;;;20.50;99.90;;;;;;6106590;23;20424;-58
2024/03/15 11:34:41;;;;;;;9.70;5.80;;;20.40;99.90;;;;;;6108066;23;20526;-58
2024/03/15 11:37:09;;;;;;;9.10;6.53;;;20.30;99.90;;;;;;6108443;23;20402;-56
2024/03/15 11:39:36;;;;;;;13.87;7.83;;;20.30;99.90;;;;;;6106613;23;20808;-59
2024/03/15 11:42:04;;;;;;;7.90;6.83;;;20.20;99.90;;;;;;6106132;23;20423;-56
2024/03/15 11:44:31;;;;;;;8.20;6.43;;;20.10;99.90;;;;;;6107457;23;20496;-55
2024/03/15 11:46:58;;;;;;;13.27;6.70;;;20.10;99.90;;;;;;6105925;23;20403;-57
2024/03/15 11:49:25;;;;;;;8.60;5.93;;;20.10;99.90;;;;;;6105898;23;20466;-58
2024/03/15 11:51:57;;;;;;;12.37;6.17;;;20.00;99.90;;;;;;6105845;23;20721;-59
2024/03/15 11:54:25;;;;;;;10.50;6.27;;;19.90;99.90;;;;;;6106410;23;20445;-61
2024/03/15 11:56:57;;;;;;;7.00;5.60;;;19.80;99.90;;;;;;6107060;23;20410;-58
2024/03/15 11:59:27;;;;;;;11.20;6.97;;;19.90;99.90;;;;;;6106488;23;20430;-58
2024/03/15 12:01:54;;;;;;;8.60;6.57;;;19.80;99.90;;;;;;6104364;23;20498;-56
2024/03/15 12:04:25;;;;;;;7.83;6.57;;;19.70;99.90;;;;;;6105880;23;20404;-55
2024/03/15 12:06:52;;;;;;;7.27;5.90;;;19.60;99.90;;;;;;6105907;23;20407;-59
2024/03/15 12:09:19;;;;;;;8.90;5.93;;;19.60;99.90;;;;;;6106152;23;20412;-59
2024/03/15 12:11:46;;;;;;;13.27;7.07;;;19.70;99.90;;;;;;6104346;23;20442;-59
2024/03/15 12:14:13;;;;;;;11.27;7.40;;;19.70;99.90;;;;;;6104628;23;20427;-56
2024/03/15 12:16:44;;;;;;;7.07;5.60;;;19.70;99.90;;;;;;6105121;23;20399;-58
2024/03/15 12:19:13;;;;;;;9.13;5.57;;;19.80;99.90;;;;;;6105091;23;20613;-58
2024/03/15 12:21:41;;;;;;;8.83;5.43;;;19.80;99.90;;;;;;6105430;23;20423;-58
2024/03/15 12:24:08;;;;;;;7.40;5.53;;;19.80;99.90;;;;;;6104742;23;20434;-58
2024/03/15 12:26:35;;;;;;;7.80;6.10;;;19.70;99.90;;;;;;6105924;23;20952;-59
2024/03/15 12:29:02;;;;;;;7.77;5.83;;;19.70;99.90;;;;;;6106577;23;20427;-58
2024/03/15 12:31:29;;;;;;;8.50;5.90;;;19.90;99.90;;;;;;6107897;23;20395;-57
2024/03/15 12:33:56;;;;;;;9.63;5.30;;;19.80;99.90;;;;;;6106231;23;20438;-60
2024/03/15 12:36:23;;;;;;;8.37;5.10;;;19.80;99.90;;;;;;6105676;23;20442;-62
2024/03/15 12:38:52;;;;;;;11.03;5.60;;;19.80;99.90;;;;;;6105978;23;20406;-60
2024/03/15 12:41:19;;;;;;;8.00;5.50;;;19.80;99.90;;;;;;6105418;23;20795;-60